createdAt,value
2023-04-05T00:02:14.016Z,101667.81
2023-04-05T00:04:52.096Z,101663.53
2023-04-05T00:07:19.251Z,101663.56
2023-04-05T00:09:46.291Z,101660.06
2023-04-05T00:12:13.207Z,101661.88
2023-04-05T00:14:39.691Z,101657.59
2023-04-05T00:17:06.385Z,101655.97
2023-04-05T00:19:33.926Z,101658.78
2023-04-05T00:22:00.783Z,101659.25
2023-04-05T00:24:29.400Z,101667.56
2023-04-05T00:26:56.720Z,101670.81
2023-04-05T00:29:23.367Z,101656.38
2023-04-05T00:31:49.899Z,101659.94
2023-04-05T00:34:16.364Z,101664.31
2023-04-05T00:36:42.781Z,101673.34
2023-04-05T00:39:09.201Z,101664.84
2023-04-05T00:41:36.679Z,101663.38
2023-04-05T00:44:03.864Z,101665.84
2023-04-05T00:46:33.600Z,101661.38
2023-04-05T00:49:00.147Z,101662.22
2023-04-05T00:51:26.714Z,101658.63
2023-04-05T00:53:53.898Z,101645.38
2023-04-05T00:56:21.711Z,101654.81
2023-04-05T00:58:48.662Z,101644.41
2023-04-05T01:01:24.942Z,101663.75
2023-04-05T01:04:02.690Z,101666.41
2023-04-05T01:06:46.902Z,101661.34
2023-04-05T01:09:13.265Z,101647.94
2023-04-05T01:11:42.572Z,101657.50
2023-04-05T01:14:09.007Z,101656.47
2023-04-05T01:16:35.515Z,101654.88
2023-04-05T01:19:03.938Z,101651.34
2023-04-05T01:21:34.055Z,101659.13
2023-04-05T01:24:20.891Z,101652.16
2023-04-05T01:27:04.445Z,101653.09
2023-04-05T01:29:52.582Z,101664.66
2023-04-05T01:32:39.588Z,101657.69
2023-04-05T01:35:12.168Z,101667.75
2023-04-05T01:37:40.074Z,101658.81
2023-04-05T01:40:08.546Z,101658.59
2023-04-05T01:42:35.845Z,101664.78
2023-04-05T01:45:02.346Z,101663.75
2023-04-05T01:47:28.866Z,101659.53
2023-04-05T01:49:55.390Z,101652.50
2023-04-05T01:52:21.861Z,101657.75
2023-04-05T01:54:48.290Z,101644.66
2023-04-05T01:57:14.687Z,101646.50
2023-04-05T01:59:41.183Z,101650.97
2023-04-05T02:02:07.743Z,101652.69
2023-04-05T02:04:34.198Z,101655.25
2023-04-05T02:07:00.987Z,101648.28
2023-04-05T02:09:27.528Z,101646.47
2023-04-05T02:11:53.912Z,101647.59
2023-04-05T02:14:20.376Z,101637.06
2023-04-05T02:16:46.951Z,101637.88
2023-04-05T02:19:15.888Z,101640.63
2023-04-05T02:21:42.310Z,101625.47
2023-04-05T02:24:08.794Z,101636.72
2023-04-05T02:26:35.206Z,101642.88
2023-04-05T02:29:01.629Z,101638.47
2023-04-05T02:31:28.101Z,101637.63
2023-04-05T02:33:55.193Z,101642.97
2023-04-05T02:36:22.138Z,101631.81
2023-04-05T02:38:48.680Z,101633.22
2023-04-05T02:41:15.321Z,101629.59
2023-04-05T02:43:41.868Z,101627.75
2023-04-05T02:46:08.354Z,101625.19
2023-04-05T02:48:34.776Z,101617.44
2023-04-05T02:51:01.230Z,101619.97
2023-04-05T02:53:27.661Z,101626.78
2023-04-05T02:55:57.766Z,101624.88
2023-04-05T02:58:24.609Z,101618.44
2023-04-05T03:00:54.215Z,101622.63
2023-04-05T03:03:22.261Z,101615.94
2023-04-05T03:05:59.105Z,101608.56
2023-04-05T03:08:25.589Z,101615.59
2023-04-05T03:10:52.299Z,101617.97
2023-04-05T03:13:18.692Z,101608.34
2023-04-05T03:15:45.229Z,101607.66
2023-04-05T03:18:11.717Z,101609.41
2023-04-05T03:20:41.398Z,101599.59
2023-04-05T03:23:08.901Z,101603.31
2023-04-05T03:25:37.175Z,101598.88
2023-04-05T03:28:05.686Z,101595.25
2023-04-05T03:30:41.188Z,101595.19
2023-04-05T03:33:08.452Z,101591.72
2023-04-05T03:35:34.881Z,101588.19
2023-04-05T03:38:01.303Z,101586.69
2023-04-05T03:40:27.812Z,101579.91
2023-04-05T03:42:54.215Z,101579.91
2023-04-05T03:45:23.982Z,101573.50
2023-04-05T03:47:51.323Z,101579.72
2023-04-05T03:50:17.941Z,101576.06
2023-04-05T03:52:44.802Z,101581.28
2023-04-05T03:55:11.255Z,101581.13
2023-04-05T03:57:38.930Z,101579.16
2023-04-05T04:00:14.618Z,101588.13
2023-04-05T04:02:46.213Z,101579.75
2023-04-05T04:05:13.928Z,101586.28
2023-04-05T04:07:44.411Z,101574.84
2023-04-05T04:10:16.826Z,101580.94
2023-04-05T04:12:43.396Z,101576.47
2023-04-05T04:15:10.186Z,101585.75
2023-04-05T04:17:37.300Z,101584.69
2023-04-05T04:20:11.295Z,101593.88
2023-04-05T04:22:40.194Z,101598.00
2023-04-05T04:25:10.581Z,101593.22
2023-04-05T04:27:39.610Z,101603.50
2023-04-05T04:30:12.008Z,101590.47
2023-04-05T04:32:53.408Z,101592.75
2023-04-05T04:35:27.854Z,101592.41
2023-04-05T04:38:02.744Z,101588.94
2023-04-05T04:40:32.332Z,101589.84
2023-04-05T04:43:00.040Z,101596.81
2023-04-05T04:45:26.575Z,101596.69
2023-04-05T04:47:53.738Z,101592.31
2023-04-05T04:50:20.852Z,101593.91
2023-04-05T04:52:47.776Z,101595.84
2023-04-05T04:55:14.463Z,101595.94
2023-04-05T04:57:42.150Z,101585.34
2023-04-05T05:00:13.110Z,101591.56
2023-04-05T05:02:40.084Z,101593.72
2023-04-05T05:05:07.640Z,101591.94
2023-04-05T05:07:34.490Z,101594.78
2023-04-05T05:10:01.609Z,101598.94
2023-04-05T05:12:28.147Z,101588.09
2023-04-05T05:14:54.549Z,101595.97
2023-04-05T05:17:20.954Z,101601.97
2023-04-05T05:19:47.383Z,101594.28
2023-04-05T05:22:13.800Z,101599.63
2023-04-05T05:24:40.282Z,101594.28
2023-04-05T05:27:06.828Z,101600.38
2023-04-05T05:29:33.244Z,101594.25
2023-04-05T05:32:08.478Z,101593.47
2023-04-05T05:34:35.577Z,101599.16
2023-04-05T05:37:02.041Z,101601.94
2023-04-05T05:39:28.467Z,101610.38
2023-04-05T05:41:54.939Z,101603.09
2023-04-05T05:44:21.405Z,101604.56
2023-04-05T05:46:47.877Z,101604.94
2023-04-05T05:49:14.377Z,101595.22
2023-04-05T05:51:40.798Z,101595.38
2023-04-05T05:54:07.204Z,101597.59
2023-04-05T05:56:33.628Z,101602.16
2023-04-05T05:59:01.627Z,101593.16
2023-04-05T06:01:29.264Z,101597.38
2023-04-05T06:03:55.877Z,101590.94
2023-04-05T06:06:23.336Z,101590.28
2023-04-05T06:08:51.398Z,101603.03
2023-04-05T06:11:19.186Z,101600.59
2023-04-05T06:13:46.025Z,101605.53
2023-04-05T06:16:12.535Z,101598.50
2023-04-05T06:18:39.042Z,101596.38
2023-04-05T06:21:05.633Z,101594.44
2023-04-05T06:23:32.175Z,101602.34
2023-04-05T06:25:58.676Z,101597.81
2023-04-05T06:28:25.312Z,101593.50
2023-04-05T06:30:51.790Z,101597.63
2023-04-05T06:33:18.236Z,101596.78
2023-04-05T06:35:44.686Z,101599.56
2023-04-05T06:38:11.194Z,101589.16
2023-04-05T06:40:37.625Z,101589.50
2023-04-05T06:43:04.116Z,101584.81
2023-04-05T06:45:31.423Z,101592.47
2023-04-05T06:47:58.017Z,101595.81
2023-04-05T06:50:24.729Z,101593.50
2023-04-05T06:52:51.139Z,101582.38
2023-04-05T06:55:17.515Z,101586.66
2023-04-05T06:57:43.945Z,101589.72
2023-04-05T07:00:11.947Z,101587.44
2023-04-05T07:02:39.096Z,101591.53
2023-04-05T07:05:06.040Z,101586.25
2023-04-05T07:07:33.333Z,101588.31
2023-04-05T07:09:59.909Z,101587.13
2023-04-05T07:12:26.354Z,101593.09
2023-04-05T07:14:52.784Z,101589.19
2023-04-05T07:17:19.255Z,101584.94
2023-04-05T07:19:46.239Z,101582.44
2023-04-05T07:22:12.694Z,101577.59
2023-04-05T07:24:39.317Z,101572.91
2023-04-05T07:27:05.783Z,101577.94
2023-04-05T07:29:32.354Z,101577.34
2023-04-05T07:31:58.953Z,101576.50
2023-04-05T07:34:25.517Z,101576.44
2023-04-05T07:36:52.040Z,101581.66
2023-04-05T07:39:19.990Z,101572.78
2023-04-05T07:41:46.461Z,101568.97
2023-04-05T07:44:12.870Z,101567.69
2023-04-05T07:49:11.687Z,101572.31
2023-04-05T07:51:38.669Z,101574.97
2023-04-05T07:54:05.878Z,101566.38
2023-04-05T07:56:32.628Z,101577.91
2023-04-05T07:58:59.343Z,101569.59
2023-04-05T08:01:27.792Z,101573.47
2023-04-05T08:03:57.378Z,101575.56
2023-04-05T08:06:27.455Z,101574.47
2023-04-05T08:08:53.912Z,101566.50
2023-04-05T08:11:21.537Z,101567.78
2023-04-05T08:13:48.148Z,101563.63
2023-04-05T08:16:14.580Z,101552.22
2023-04-05T08:18:41.031Z,101552.44
2023-04-05T08:21:07.483Z,101548.69
2023-04-05T08:23:33.986Z,101546.28
2023-04-05T08:26:00.584Z,101546.44
2023-04-05T08:28:27.369Z,101542.31
2023-04-05T08:30:57.748Z,101541.66
2023-04-05T08:33:26.292Z,101549.88
2023-04-05T08:35:53.055Z,101548.88
2023-04-05T08:38:19.749Z,101553.03
2023-04-05T08:40:47.822Z,101544.63
2023-04-05T08:44:07.987Z,101549.25
2023-04-05T08:46:35.440Z,101539.72
2023-04-05T08:49:09.072Z,101538.41
2023-04-05T08:51:41.360Z,101546.13
2023-04-05T08:54:08.084Z,101548.91
2023-04-05T08:56:35.829Z,101548.81
2023-04-05T08:59:09.840Z,101548.16
2023-04-05T09:01:39.032Z,101550.97
2023-04-05T09:04:07.604Z,101540.75
2023-04-05T09:06:36.482Z,101537.88
2023-04-05T09:09:06.738Z,101535.84
2023-04-05T09:11:34.427Z,101544.19
2023-04-05T09:14:04.381Z,101539.28
2023-04-05T09:16:34.105Z,101545.22
2023-04-05T09:19:00.816Z,101539.25
2023-04-05T09:21:29.689Z,101526.38
2023-04-05T09:23:56.694Z,101539.13
2023-04-05T09:26:24.788Z,101539.66
2023-04-05T09:28:51.727Z,101541.16
2023-04-05T09:31:33.363Z,101534.09
2023-04-05T09:34:02.633Z,101526.00
2023-04-05T09:36:29.485Z,101518.88
2023-04-05T09:39:07.027Z,101520.94
2023-04-05T09:41:34.608Z,101523.44
2023-04-05T09:44:01.374Z,101517.22
2023-04-05T09:46:32.257Z,101522.78
2023-04-05T09:48:58.822Z,101526.56
2023-04-05T09:51:33.531Z,101515.72
2023-04-05T09:54:08.361Z,101525.09
2023-04-05T09:56:37.203Z,101516.22
2023-04-05T09:59:09.561Z,101507.50
2023-04-05T10:01:43.259Z,101506.94
2023-04-05T10:04:10.108Z,101518.38
2023-04-05T10:06:41.308Z,101517.25
2023-04-05T10:09:09.715Z,101515.22
2023-04-05T10:11:39.563Z,101505.16
2023-04-05T10:14:08.712Z,101505.72
2023-04-05T10:16:55.877Z,101519.16
2023-04-05T10:19:29.413Z,101509.28
2023-04-05T10:22:00.237Z,101509.69
2023-04-05T10:24:51.973Z,101504.16
2023-04-05T10:27:22.326Z,101498.78
2023-04-05T10:30:08.519Z,101504.81
2023-04-05T10:33:12.728Z,101500.28
2023-04-05T10:36:04.246Z,101494.19
2023-04-05T10:38:42.403Z,101489.88
2023-04-05T10:41:17.006Z,101487.91
2023-04-05T10:43:46.063Z,101479.34
2023-04-05T10:46:19.495Z,101474.50
2023-04-05T10:48:59.177Z,101472.56
2023-04-05T10:51:29.684Z,101477.75
2023-04-05T10:53:56.903Z,101474.63
2023-04-05T10:56:25.005Z,101477.47
2023-04-05T10:58:52.883Z,101463.91
2023-04-05T11:01:21.524Z,101465.19
2023-04-05T11:03:49.704Z,101472.69
2023-04-05T11:06:20.668Z,101463.88
2023-04-05T11:08:48.313Z,101460.06
2023-04-05T11:11:17.717Z,101453.72
2023-04-05T11:13:57.934Z,101461.16
2023-04-05T11:16:39.476Z,101457.06
2023-04-05T11:19:06.130Z,101463.31
2023-04-05T11:21:32.628Z,101444.75
2023-04-05T11:24:01.627Z,101456.59
2023-04-05T11:26:40.704Z,101452.09
2023-04-05T11:29:07.939Z,101447.78
2023-04-05T11:31:34.468Z,101458.72
2023-04-05T11:34:12.777Z,101449.38
2023-04-05T11:36:45.794Z,101456.25
2023-04-05T11:39:18.574Z,101453.22
2023-04-05T11:42:02.323Z,101450.78
2023-04-05T11:44:43.786Z,101450.78
2023-04-05T11:47:11.471Z,101443.81
2023-04-05T11:49:39.161Z,101429.31
2023-04-05T11:52:14.568Z,101424.00
2023-04-05T11:54:47.517Z,101431.00
2023-04-05T11:57:18.605Z,101426.09
2023-04-05T11:59:45.399Z,101424.47
2023-04-05T12:02:12.589Z,101414.94
2023-04-05T12:04:39.249Z,101405.63
2023-04-05T12:07:19.398Z,101406.22
2023-04-05T12:09:59.932Z,101397.22
2023-04-05T12:12:26.474Z,101401.13
2023-04-05T12:14:59.076Z,101398.72
2023-04-05T12:17:42.720Z,101403.69
2023-04-05T12:20:10.711Z,101402.78
2023-04-05T12:22:38.592Z,101391.78
2023-04-05T12:25:06.145Z,101388.97
2023-04-05T12:27:32.808Z,101383.38
2023-04-05T12:30:10.465Z,101378.56
2023-04-05T12:32:41.433Z,101376.00
2023-04-05T12:35:21.677Z,101373.03
2023-04-05T12:37:50.816Z,101377.84
2023-04-05T12:40:24.826Z,101376.22
2023-04-05T12:42:51.741Z,101374.44
2023-04-05T12:45:18.692Z,101363.78
2023-04-05T12:47:59.715Z,101370.28
2023-04-05T12:50:30.936Z,101365.94
2023-04-05T12:53:04.828Z,101357.88
2023-04-05T12:55:31.954Z,101354.25
2023-04-05T12:58:02.271Z,101363.72
2023-04-05T13:00:29.830Z,101359.13
2023-04-05T13:02:58.159Z,101358.34
2023-04-05T13:05:27.154Z,101351.63
2023-04-05T13:07:54.033Z,101357.06
2023-04-05T13:10:21.558Z,101352.84
2023-04-05T13:12:48.500Z,101339.88
2023-04-05T13:15:16.141Z,101342.16
2023-04-05T13:17:45.176Z,101338.91
2023-04-05T13:20:12.057Z,101339.41
2023-04-05T13:22:39.477Z,101330.66
2023-04-05T13:25:06.448Z,101336.19
2023-04-05T13:27:32.887Z,101321.03
2023-04-05T13:29:59.281Z,101323.38
2023-04-05T13:32:26.062Z,101324.50
2023-04-05T13:34:52.585Z,101311.31
2023-04-05T13:37:19.081Z,101314.31
2023-04-05T13:39:45.549Z,101313.31
2023-04-05T13:42:11.978Z,101314.63
2023-04-05T13:44:38.439Z,101309.72
2023-04-05T13:47:05.012Z,101307.56
2023-04-05T13:49:31.572Z,101300.25
2023-04-05T13:51:58.046Z,101292.84
2023-04-05T13:54:24.529Z,101297.22
2023-04-05T13:56:51.162Z,101299.47
2023-04-05T13:59:19.456Z,101294.69
2023-04-05T14:01:46.790Z,101294.03
2023-04-05T14:04:13.606Z,101298.63
2023-04-05T14:06:40.106Z,101287.69
2023-04-05T14:09:06.515Z,101283.72
2023-04-05T14:11:33.113Z,101283.78
2023-04-05T14:13:59.684Z,101282.44
2023-04-05T14:16:26.281Z,101284.03
2023-04-05T14:18:52.791Z,101280.53
2023-04-05T14:21:19.541Z,101270.09
2023-04-05T14:23:46.390Z,101270.66
2023-04-05T14:26:13.187Z,101271.22
2023-04-05T14:28:39.673Z,101265.22
2023-04-05T14:31:06.256Z,101260.22
2023-04-05T14:33:32.717Z,101262.47
2023-04-05T14:35:59.232Z,101262.53
2023-04-05T14:38:25.869Z,101262.66
2023-04-05T14:40:52.421Z,101259.22
2023-04-05T14:43:18.950Z,101259.34
2023-04-05T14:45:45.441Z,101256.44
2023-04-05T14:48:11.944Z,101263.84
2023-04-05T14:50:38.606Z,101260.97
2023-04-05T14:53:05.349Z,101255.72
2023-04-05T14:55:31.811Z,101252.31
2023-04-05T14:57:58.317Z,101256.16
2023-04-05T15:00:24.914Z,101253.66
2023-04-05T15:02:51.548Z,101252.16
2023-04-05T15:05:18.579Z,101255.19
2023-04-05T15:07:45.163Z,101245.44
2023-04-05T15:10:11.710Z,101249.91
2023-04-05T15:12:38.257Z,101249.16
2023-04-05T15:15:05.193Z,101249.00
2023-04-05T15:17:31.706Z,101247.94
2023-04-05T15:19:58.170Z,101245.16
2023-04-05T15:22:24.783Z,101241.31
2023-04-05T15:24:51.317Z,101235.25
2023-04-05T15:27:17.804Z,101244.25
2023-04-05T15:29:44.374Z,101241.94
2023-04-05T15:32:10.934Z,101243.06
2023-04-05T15:34:38.223Z,101243.50
2023-04-05T15:37:04.706Z,101241.59
2023-04-05T15:39:31.460Z,101245.28
2023-04-05T15:41:57.994Z,101245.72
2023-04-05T15:44:24.484Z,101238.34
2023-04-05T15:46:51.023Z,101236.78
2023-04-05T15:49:17.744Z,101239.72
2023-04-05T15:51:44.638Z,101239.94
2023-04-05T15:54:14.096Z,101234.88
2023-04-05T15:56:40.564Z,101232.31
2023-04-05T15:59:07.210Z,101235.41
2023-04-05T16:01:33.785Z,101234.88
2023-04-05T16:04:00.615Z,101235.00
2023-04-05T16:06:29.466Z,101236.13
2023-04-05T16:08:56.193Z,101233.97
2023-04-05T16:11:22.844Z,101229.34
2023-04-05T16:13:49.621Z,101233.31
2023-04-05T16:16:25.740Z,101235.16
2023-04-05T16:19:01.794Z,101230.34
2023-04-05T16:21:28.627Z,101226.13
2023-04-05T16:23:56.752Z,101234.09
2023-04-05T16:26:23.426Z,101232.81
2023-04-05T16:28:49.916Z,101228.19
2023-04-05T16:31:16.479Z,101225.63
2023-04-05T16:33:43.002Z,101218.19
2023-04-05T16:36:09.501Z,101216.59
2023-04-05T16:38:36.201Z,101231.16
2023-04-05T16:41:02.678Z,101231.09
2023-04-05T16:43:29.155Z,101232.47
2023-04-05T16:45:55.954Z,101223.09
2023-04-05T16:48:22.734Z,101216.69
2023-04-05T16:50:49.268Z,101223.91
2023-04-05T16:53:16.015Z,101217.97
2023-04-05T16:55:42.567Z,101218.06
2023-04-05T16:58:09.078Z,101218.41
2023-04-05T17:00:37.039Z,101220.88
2023-04-05T17:03:03.848Z,101214.50
2023-04-05T17:05:30.405Z,101216.72
2023-04-05T17:07:56.840Z,101212.00
2023-04-05T17:10:23.320Z,101214.31
2023-04-05T17:12:49.880Z,101212.97
2023-04-05T17:15:16.565Z,101214.47
2023-04-05T17:17:43.079Z,101218.78
2023-04-05T17:20:10.414Z,101211.47
2023-04-05T17:22:37.282Z,101208.13
2023-04-05T17:25:05.738Z,101199.81
2023-04-05T17:27:32.211Z,101203.56
2023-04-05T17:30:00.235Z,101199.84
2023-04-05T17:32:29.751Z,101206.72
2023-04-05T17:34:56.388Z,101200.56
2023-04-05T17:37:22.911Z,101212.81
2023-04-05T17:39:49.356Z,101205.69
2023-04-05T17:42:17.037Z,101208.94
2023-04-05T17:44:43.527Z,101208.91
2023-04-05T17:47:10.263Z,101208.59
2023-04-05T17:49:37.480Z,101201.69
2023-04-05T17:52:05.436Z,101204.00
2023-04-05T17:54:36.808Z,101202.00
2023-04-05T17:57:14.907Z,101211.28
2023-04-05T17:59:42.211Z,101208.31
2023-04-05T18:02:10.894Z,101210.97
2023-04-05T18:04:40.997Z,101210.19
2023-04-05T18:07:08.130Z,101210.09
2023-04-05T18:09:35.410Z,101216.13
2023-04-05T18:12:02.468Z,101210.13
2023-04-05T18:15:06.709Z,101213.88
2023-04-05T18:17:33.291Z,101216.31
2023-04-05T18:19:59.828Z,101219.72
2023-04-05T18:22:26.369Z,101217.84
2023-04-05T18:24:52.853Z,101226.88
2023-04-05T18:27:19.288Z,101221.19
2023-04-05T18:29:46.667Z,101226.84
2023-04-05T18:32:13.190Z,101225.53
2023-04-05T18:34:39.731Z,101216.94
2023-04-05T18:37:06.442Z,101226.19
2023-04-05T18:39:54.613Z,101224.81
2023-04-05T18:42:21.186Z,101237.75
2023-04-05T18:44:47.722Z,101231.16
2023-04-05T18:47:14.245Z,101232.38
2023-04-05T18:49:41.074Z,101233.66
2023-04-05T18:52:07.506Z,101229.38
2023-04-05T18:54:33.976Z,101235.16
2023-04-05T18:57:00.611Z,101236.19
2023-04-05T18:59:27.251Z,101239.75
2023-04-05T19:01:54.247Z,101240.56
2023-04-05T19:04:20.830Z,101235.63
2023-04-05T19:06:47.298Z,101239.81
2023-04-05T19:09:15.821Z,101248.06
2023-04-05T19:11:42.275Z,101248.25
2023-04-05T19:14:08.827Z,101253.78
2023-04-05T19:16:35.409Z,101247.84
2023-04-05T19:19:03.674Z,101260.47
2023-04-05T19:21:30.981Z,101255.41
2023-04-05T19:23:57.786Z,101255.41
2023-04-05T19:26:24.239Z,101257.00
2023-04-05T19:28:50.779Z,101252.09
2023-04-05T19:31:17.321Z,101257.91
2023-04-05T19:33:44.026Z,101251.94
2023-04-05T19:36:10.928Z,101247.50
2023-04-05T19:39:28.016Z,101248.78
2023-04-05T19:41:54.522Z,101254.03
2023-04-05T19:44:42.793Z,101254.69
2023-04-05T19:47:10.980Z,101250.00
2023-04-05T19:49:39.189Z,101247.50
2023-04-05T19:52:11.355Z,101248.00
2023-04-05T19:54:38.719Z,101252.81
2023-04-05T19:57:06.651Z,101246.78
2023-04-05T19:59:42.784Z,101255.59
2023-04-05T20:02:24.826Z,101245.19
2023-04-05T20:04:51.972Z,101245.88
2023-04-05T20:07:18.519Z,101235.44
2023-04-05T20:09:45.037Z,101245.25
2023-04-05T20:12:13.284Z,101238.44
2023-04-05T20:14:46.266Z,101236.47
2023-04-05T20:17:13.491Z,101235.19
2023-04-05T20:19:41.728Z,101237.75
2023-04-05T20:22:09.225Z,101229.97
2023-04-05T20:24:39.507Z,101232.66
2023-04-05T20:27:06.089Z,101234.81
2023-04-05T20:29:33.328Z,101242.63
2023-04-05T20:32:01.069Z,101234.19
2023-04-05T20:34:34.744Z,101236.81
2023-04-05T20:37:03.028Z,101233.97
2023-04-05T20:39:30.511Z,101228.56
2023-04-05T20:41:57.149Z,101237.47
2023-04-05T20:44:24.364Z,101231.63
2023-04-05T20:46:53.213Z,101227.81
2023-04-05T20:49:20.844Z,101232.44
2023-04-05T20:51:47.290Z,101223.75
2023-04-05T20:54:13.866Z,101222.88
2023-04-05T20:56:40.965Z,101220.19
2023-04-05T20:59:07.924Z,101228.66
2023-04-05T21:01:36.790Z,101225.72
2023-04-05T21:04:03.805Z,101223.94
2023-04-05T21:06:30.474Z,101228.31
2023-04-05T21:08:56.913Z,101231.84
2023-04-05T21:11:23.362Z,101217.91
2023-04-05T21:13:49.847Z,101225.25
2023-04-05T21:16:16.564Z,101214.97
2023-04-05T21:18:43.125Z,101221.97
2023-04-05T21:21:09.657Z,101225.94
2023-04-05T21:23:36.107Z,101222.38
2023-04-05T21:26:04.389Z,101214.97
2023-04-05T21:28:31.132Z,101218.09
2023-04-05T21:30:58.812Z,101208.13
2023-04-05T21:33:25.349Z,101219.75
2023-04-05T21:35:51.910Z,101227.66
2023-04-05T21:38:18.620Z,101223.72
2023-04-05T21:40:45.119Z,101219.06
2023-04-05T21:43:12.840Z,101226.38
2023-04-05T21:45:39.396Z,101225.88
2023-04-05T21:48:06.279Z,101224.44
2023-04-05T21:50:32.878Z,101223.13
2023-04-05T21:52:59.374Z,101227.13
2023-04-05T21:55:25.864Z,101214.00
2023-04-05T21:57:52.368Z,101222.94
2023-04-05T22:00:19.137Z,101221.91
2023-04-05T22:02:46.738Z,101221.59
2023-04-05T22:05:17.589Z,101214.16
2023-04-05T22:07:52.549Z,101217.03
2023-04-05T22:10:19.277Z,101214.25
2023-04-05T22:12:46.066Z,101221.81
2023-04-05T22:15:12.600Z,101222.22
2023-04-05T22:17:39.190Z,101219.44
2023-04-05T22:20:06.528Z,101220.38
2023-04-05T22:22:33.060Z,101219.78
2023-04-05T22:24:59.528Z,101221.44
2023-04-05T22:27:28.113Z,101226.25
2023-04-05T22:29:54.746Z,101225.38
2023-04-05T22:32:21.389Z,101222.50
2023-04-05T22:34:47.891Z,101220.56
2023-04-05T22:37:14.359Z,101223.34
2023-04-05T22:39:40.831Z,101223.56
2023-04-05T22:42:07.399Z,101218.22
2023-04-05T22:44:33.897Z,101211.38
2023-04-05T22:47:00.358Z,101221.50
2023-04-05T22:49:26.812Z,101208.34
2023-04-05T22:51:53.321Z,101212.63
2023-04-05T22:54:19.772Z,101212.59
2023-04-05T22:56:46.429Z,101207.03
2023-04-05T22:59:12.958Z,101205.97
2023-04-05T23:01:39.540Z,101204.59
2023-04-05T23:04:06.781Z,101196.16
2023-04-05T23:06:33.498Z,101200.97
2023-04-05T23:09:01.668Z,101194.19
2023-04-05T23:11:28.141Z,101189.81
2023-04-05T23:13:54.810Z,101187.38
2023-04-05T23:16:21.947Z,101186.16
2023-04-05T23:18:49.169Z,101187.94
2023-04-05T23:21:16.316Z,101186.25
2023-04-05T23:23:42.761Z,101187.19
2023-04-05T23:26:09.211Z,101191.75
2023-04-05T23:28:35.782Z,101188.91
2023-04-05T23:31:02.236Z,101187.69
2023-04-05T23:33:28.766Z,101187.00
2023-04-05T23:35:55.553Z,101179.69
2023-04-05T23:38:22.024Z,101182.78
2023-04-05T23:40:48.484Z,101182.25
2023-04-05T23:43:14.955Z,101177.91
2023-04-05T23:45:41.792Z,101179.75
2023-04-05T23:48:08.333Z,101176.72
2023-04-05T23:50:34.837Z,101174.00
2023-04-05T23:53:02.821Z,101173.16
2023-04-05T23:55:31.802Z,101169.78
2023-04-05T23:58:00.056Z,101163.13
